createdAt,value
2019-04-10T00:00:57.730Z,7.57
2019-04-10T00:01:58.086Z,7.54
2019-04-10T00:02:57.842Z,7.51
2019-04-10T00:03:58.681Z,7.57
2019-04-10T00:04:57.848Z,7.58
2019-04-10T00:05:58.414Z,7.58
2019-04-10T00:07:10.367Z,7.57
2019-04-10T00:07:57.938Z,7.57
2019-04-10T00:08:58.837Z,7.58
2019-04-10T00:09:58.000Z,7.57
2019-04-10T00:10:58.577Z,7.54
2019-04-10T00:11:58.978Z,7.50
2019-04-10T00:12:58.314Z,7.54
2019-04-10T00:13:58.722Z,7.41
2019-04-10T00:14:58.828Z,7.54
2019-04-10T00:15:59.077Z,7.41
2019-04-10T00:16:58.200Z,7.52
2019-04-10T00:17:58.228Z,7.37
2019-04-10T00:18:58.257Z,7.42
2019-04-10T00:19:58.293Z,7.47
2019-04-10T00:20:58.606Z,7.41
2019-04-10T00:21:58.346Z,7.44
2019-04-10T00:22:58.374Z,7.44
2019-04-10T00:23:58.406Z,7.41
2019-04-10T00:24:58.435Z,7.37
2019-04-10T00:25:59.329Z,7.33
2019-04-10T00:26:58.554Z,7.27
2019-04-10T00:27:59.035Z,7.36
2019-04-10T00:28:58.551Z,7.30
2019-04-10T00:29:58.651Z,7.24
2019-04-10T00:30:59.555Z,7.27
2019-04-10T00:32:01.399Z,7.23
2019-04-10T00:32:58.667Z,7.19
2019-04-10T00:33:59.007Z,7.21
2019-04-10T00:34:58.727Z,7.24
2019-04-10T00:35:59.535Z,7.23
2019-04-10T00:36:59.626Z,7.26
2019-04-10T00:37:59.553Z,7.23
2019-04-10T00:38:58.839Z,7.21
2019-04-10T00:39:59.169Z,7.18
2019-04-10T00:40:59.600Z,7.08
2019-04-10T00:41:58.929Z,7.12
2019-04-10T00:42:58.959Z,7.01
2019-04-10T00:43:59.401Z,7.11
2019-04-10T00:44:59.755Z,7.04
2019-04-10T00:45:59.913Z,7.05
2019-04-10T00:46:59.072Z,7.07
2019-04-10T00:47:59.545Z,7.05
2019-04-10T00:48:59.139Z,7.08
2019-04-10T00:49:59.161Z,7.00
2019-04-10T00:50:59.291Z,6.97
2019-04-10T00:51:59.590Z,7.00
2019-04-10T00:52:59.250Z,6.99
2019-04-10T00:53:59.362Z,6.89
2019-04-10T00:54:59.468Z,6.93
2019-04-10T00:55:59.919Z,6.96
2019-04-10T00:56:59.364Z,6.93
2019-04-10T00:57:59.394Z,6.93
2019-04-10T00:58:59.663Z,6.86
2019-04-10T00:59:59.450Z,6.83
2019-04-10T01:00:59.482Z,6.87
2019-04-10T01:02:00.359Z,6.89
2019-04-10T01:02:59.538Z,6.86
2019-04-10T01:04:00.203Z,6.87
2019-04-10T01:05:00.499Z,6.89
2019-04-10T01:05:59.706Z,6.90
2019-04-10T01:07:00.168Z,6.97
2019-04-10T01:08:00.172Z,6.91
2019-04-10T01:08:59.712Z,6.90
2019-04-10T01:09:59.814Z,6.87
2019-04-10T01:11:00.979Z,6.86
2019-04-10T01:11:59.798Z,6.83
2019-04-10T01:13:00.648Z,6.81
2019-04-10T01:13:59.857Z,6.86
2019-04-10T01:15:00.282Z,6.83
2019-04-10T01:16:00.690Z,6.76
2019-04-10T01:17:00.071Z,6.75
2019-04-10T01:17:59.970Z,6.81
2019-04-10T01:18:59.997Z,6.81
2019-04-10T01:20:00.622Z,6.78
2019-04-10T01:21:00.056Z,6.73
2019-04-10T01:22:01.010Z,6.73
2019-04-10T01:23:00.115Z,6.72
2019-04-10T01:24:00.141Z,6.79
2019-04-10T01:25:00.172Z,6.75
2019-04-10T01:26:01.031Z,6.61
2019-04-10T01:27:01.227Z,6.72
2019-04-10T01:28:00.519Z,6.64
2019-04-10T01:29:00.912Z,6.63
2019-04-10T01:30:00.316Z,6.64
2019-04-10T01:31:00.343Z,6.58
2019-04-10T01:32:01.395Z,6.58
2019-04-10T01:33:00.650Z,6.57
2019-04-10T01:34:01.039Z,6.58
2019-04-10T01:35:00.457Z,6.64
2019-04-10T01:36:00.581Z,6.60
2019-04-10T01:37:00.653Z,6.55
2019-04-10T01:38:03.891Z,6.57
2019-04-10T01:39:00.573Z,6.50
2019-04-10T01:40:00.601Z,6.54
2019-04-10T01:41:01.535Z,6.63
2019-04-10T01:42:00.672Z,6.54
2019-04-10T01:43:08.348Z,6.57
2019-04-10T01:44:01.478Z,6.53
2019-04-10T01:45:00.825Z,6.57
2019-04-10T01:46:00.772Z,6.57
2019-04-10T01:47:00.802Z,6.60
2019-04-10T01:48:01.635Z,6.55
2019-04-10T01:49:01.693Z,6.48
2019-04-10T01:50:00.891Z,6.43
2019-04-10T01:51:01.204Z,6.42
2019-04-10T01:52:00.945Z,6.46
2019-04-10T01:53:01.648Z,6.39
2019-04-10T01:54:01.001Z,6.35
2019-04-10T01:55:03.170Z,6.46
2019-04-10T01:56:01.060Z,6.40
2019-04-10T01:57:01.086Z,6.32
2019-04-10T01:58:01.115Z,6.32
2019-04-10T01:59:01.433Z,6.25
2019-04-10T02:00:01.175Z,6.32
2019-04-10T02:01:01.860Z,6.30
2019-04-10T02:02:01.233Z,6.27
2019-04-10T02:03:01.510Z,6.27
2019-04-10T02:04:01.296Z,6.25
2019-04-10T02:05:01.337Z,6.33
2019-04-10T02:06:01.346Z,6.33
2019-04-10T02:07:02.164Z,6.28
2019-04-10T02:08:08.659Z,6.20
2019-04-10T02:09:02.455Z,6.25
2019-04-10T02:10:01.702Z,6.21
2019-04-10T02:11:02.707Z,6.13
2019-04-10T02:12:02.138Z,6.08
2019-04-10T02:13:01.555Z,6.17
2019-04-10T02:14:01.595Z,6.16
2019-04-10T02:15:02.944Z,6.08
2019-04-10T02:16:02.731Z,6.17
2019-04-10T02:17:01.660Z,6.24
2019-04-10T02:18:01.686Z,6.11
2019-04-10T02:19:01.785Z,6.05
2019-04-10T02:20:02.904Z,6.05
2019-04-10T02:21:01.780Z,6.13
2019-04-10T02:22:02.418Z,6.05
2019-04-10T02:23:01.827Z,6.08
2019-04-10T02:24:02.854Z,6.08
2019-04-10T02:25:01.886Z,6.11
2019-04-10T02:26:01.912Z,6.08
2019-04-10T02:27:02.428Z,6.08
2019-04-10T02:28:02.787Z,6.06
2019-04-10T02:29:02.000Z,6.08
2019-04-10T02:30:02.417Z,6.02
2019-04-10T02:31:02.819Z,6.06
2019-04-10T02:32:02.364Z,6.03
2019-04-10T02:33:02.441Z,6.10
2019-04-10T02:34:02.141Z,6.05
2019-04-10T02:35:03.784Z,6.08
2019-04-10T02:36:03.656Z,6.08
2019-04-10T02:37:02.584Z,6.08
2019-04-10T02:38:22.956Z,5.99
2019-04-10T02:39:15.127Z,6.03
2019-04-10T02:40:04.646Z,6.03
2019-04-10T02:41:03.505Z,5.99
2019-04-10T02:42:02.886Z,6.05
2019-04-10T02:43:03.242Z,5.98
2019-04-10T02:44:03.147Z,6.01
2019-04-10T02:45:02.813Z,6.03
2019-04-10T02:46:03.894Z,5.96
2019-04-10T02:47:04.201Z,6.06
2019-04-10T02:48:04.015Z,6.03
2019-04-10T02:49:04.061Z,5.95
2019-04-10T02:50:03.623Z,6.05
2019-04-10T02:51:02.624Z,6.02
2019-04-10T02:52:04.005Z,6.03
2019-04-10T02:53:03.425Z,6.03
2019-04-10T02:54:02.712Z,5.99
2019-04-10T02:55:03.797Z,6.08
2019-04-10T02:56:03.164Z,6.08
2019-04-10T02:57:03.547Z,6.05
2019-04-10T02:58:02.817Z,6.08
2019-04-10T02:59:02.950Z,6.05
2019-04-10T03:00:03.825Z,6.08
2019-04-10T03:01:03.253Z,6.08
2019-04-10T03:02:04.156Z,6.10
2019-04-10T03:03:03.609Z,6.08
2019-04-10T03:04:03.422Z,6.08
2019-04-10T03:05:03.018Z,6.08
2019-04-10T03:06:03.053Z,6.14
2019-04-10T03:07:04.326Z,6.11
2019-04-10T03:08:04.852Z,6.05
2019-04-10T03:09:18.949Z,6.08
2019-04-10T03:10:15.227Z,6.16
2019-04-10T03:11:06.287Z,6.10
2019-04-10T03:12:03.712Z,6.10
2019-04-10T03:13:04.613Z,6.24
2019-04-10T03:14:04.336Z,6.11
2019-04-10T03:15:04.187Z,6.20
2019-04-10T03:16:03.350Z,6.20
2019-04-10T03:17:03.835Z,6.14
2019-04-10T03:18:04.271Z,6.25
2019-04-10T03:19:03.412Z,6.24
2019-04-10T03:20:03.438Z,6.20
2019-04-10T03:21:03.468Z,6.20
2019-04-10T03:22:03.876Z,6.17
2019-04-10T03:23:03.524Z,6.25
2019-04-10T03:24:04.244Z,6.24
2019-04-10T03:25:04.500Z,6.17
2019-04-10T03:26:03.610Z,6.17
2019-04-10T03:27:03.816Z,6.19
2019-04-10T03:28:03.664Z,6.20
2019-04-10T03:29:03.695Z,6.30
2019-04-10T03:30:05.210Z,6.19
2019-04-10T03:31:05.805Z,6.24
2019-04-10T03:32:04.523Z,6.24
2019-04-10T03:33:06.582Z,6.28
2019-04-10T03:34:06.087Z,6.21
2019-04-10T03:35:03.863Z,6.21
2019-04-10T03:36:03.899Z,6.24
2019-04-10T03:37:04.379Z,6.19
2019-04-10T03:38:03.948Z,6.19
2019-04-10T03:39:06.425Z,6.08
2019-04-10T03:40:04.949Z,6.24
2019-04-10T03:41:04.134Z,6.05
2019-04-10T03:42:04.392Z,6.02
2019-04-10T03:43:04.088Z,6.06
2019-04-10T03:44:04.116Z,6.20
2019-04-10T03:45:05.480Z,6.10
2019-04-10T03:46:04.175Z,6.10
2019-04-10T03:47:04.203Z,6.13
2019-04-10T03:48:04.923Z,5.98
2019-04-10T03:49:05.311Z,6.08
2019-04-10T03:50:04.657Z,6.03
2019-04-10T03:51:04.316Z,5.98
2019-04-10T03:52:05.130Z,6.05
2019-04-10T03:53:05.448Z,6.05
2019-04-10T03:54:04.809Z,6.02
2019-04-10T03:55:04.932Z,5.96
2019-04-10T03:56:05.360Z,5.99
2019-04-10T03:57:04.605Z,5.85
2019-04-10T03:58:04.520Z,5.87
2019-04-10T03:59:04.540Z,5.88
2019-04-10T04:00:05.654Z,5.88
2019-04-10T04:01:04.837Z,5.96
2019-04-10T04:02:05.294Z,5.96
2019-04-10T04:03:04.657Z,5.93
2019-04-10T04:04:04.957Z,5.85
2019-04-10T04:05:04.711Z,5.90
2019-04-10T04:06:04.742Z,5.92
2019-04-10T04:07:05.002Z,5.84
2019-04-10T04:08:05.503Z,5.84
2019-04-10T04:09:09.358Z,5.81
2019-04-10T04:10:04.850Z,5.85
2019-04-10T04:11:04.967Z,5.80
2019-04-10T04:12:04.907Z,5.83
2019-04-10T04:13:06.105Z,5.87
2019-04-10T04:14:06.146Z,5.84
2019-04-10T04:15:05.395Z,5.88
2019-04-10T04:16:05.019Z,5.88
2019-04-10T04:17:06.034Z,5.83
2019-04-10T04:18:05.076Z,5.93
2019-04-10T04:19:05.917Z,5.81
2019-04-10T04:20:05.140Z,5.88
2019-04-10T04:21:05.584Z,5.88
2019-04-10T04:22:06.114Z,5.80
2019-04-10T04:23:05.516Z,5.84
2019-04-10T04:24:05.244Z,5.84
2019-04-10T04:25:05.275Z,5.81
2019-04-10T04:26:05.301Z,5.87
2019-04-10T04:27:05.327Z,5.85
2019-04-10T04:28:05.359Z,5.81
2019-04-10T04:29:05.510Z,5.93
2019-04-10T04:30:06.379Z,5.83
2019-04-10T04:31:05.442Z,5.87
2019-04-10T04:32:11.882Z,5.81
2019-04-10T04:34:08.503Z,5.88
2019-04-10T04:35:09.084Z,5.83
2019-04-10T04:37:10.701Z,5.85
2019-04-10T04:38:11.374Z,5.88
2019-04-10T04:40:13.186Z,5.88
2019-04-10T04:41:13.288Z,5.83
2019-04-10T04:43:05.640Z,5.92
2019-04-10T04:44:05.931Z,5.90
2019-04-10T04:46:07.974Z,5.83
2019-04-10T04:47:07.871Z,5.87
2019-04-10T04:49:11.545Z,5.84
2019-04-10T04:50:11.905Z,5.88
2019-04-10T04:52:16.163Z,5.95
2019-04-10T04:53:16.232Z,5.83
2019-04-10T04:55:18.148Z,5.85
2019-04-10T04:56:18.152Z,5.92
2019-04-10T04:58:20.375Z,5.98
2019-04-10T04:59:20.603Z,5.99
2019-04-10T05:01:23.439Z,5.93
2019-04-10T05:02:23.464Z,5.93
2019-04-10T05:04:25.641Z,6.03
2019-04-10T05:05:25.744Z,5.99
2019-04-10T05:07:27.846Z,5.98
2019-04-10T05:08:28.097Z,6.02
2019-04-10T05:10:29.992Z,5.96
2019-04-10T05:11:30.678Z,6.03
2019-04-10T05:13:22.223Z,6.02
2019-04-10T05:14:21.995Z,5.96
2019-04-10T05:16:24.861Z,6.02
2019-04-10T05:17:24.194Z,6.10
2019-04-10T05:19:26.157Z,6.03
2019-04-10T05:20:38.744Z,6.03
2019-04-10T05:22:28.205Z,6.13
2019-04-10T05:23:28.810Z,6.17
2019-04-10T05:25:30.256Z,6.17
2019-04-10T05:26:30.280Z,6.08
2019-04-10T05:28:32.731Z,6.27
2019-04-10T05:29:32.441Z,6.25
2019-04-10T05:31:34.387Z,6.28
2019-04-10T05:32:35.337Z,6.30
2019-04-10T05:34:36.410Z,6.24
2019-04-10T05:35:36.491Z,6.21
2019-04-10T05:37:38.542Z,6.33
2019-04-10T05:38:38.704Z,6.33
2019-04-10T05:40:40.575Z,6.46
2019-04-10T05:41:40.590Z,6.42
2019-04-10T05:43:42.656Z,6.60
2019-04-10T05:44:42.621Z,6.61
2019-04-10T05:46:45.047Z,6.58
2019-04-10T05:47:44.899Z,6.58
2019-04-10T05:49:49.078Z,6.63
2019-04-10T05:50:56.647Z,6.68
2019-04-10T05:52:40.189Z,6.64
2019-04-10T05:53:40.866Z,6.60
2019-04-10T05:55:43.246Z,6.65
2019-04-10T05:56:43.286Z,6.71
2019-04-10T05:58:46.944Z,6.78
2019-04-10T05:59:46.383Z,6.72
2019-04-10T06:00:47.131Z,6.89
2019-04-10T06:01:46.461Z,6.87
2019-04-10T06:02:46.468Z,6.87
2019-04-10T06:03:47.305Z,6.89
2019-04-10T06:04:46.527Z,6.93
2019-04-10T06:05:46.591Z,6.97
2019-04-10T06:06:46.598Z,6.96
2019-04-10T06:07:47.573Z,6.91
2019-04-10T06:08:47.081Z,6.94
2019-04-10T06:09:55.847Z,6.91
2019-04-10T06:10:47.737Z,6.89
2019-04-10T06:11:47.384Z,6.91
2019-04-10T06:12:46.806Z,6.86
2019-04-10T06:13:46.783Z,6.90
2019-04-10T06:14:46.818Z,6.86
2019-04-10T06:15:47.490Z,6.96
2019-04-10T06:16:46.866Z,7.01
2019-04-10T06:17:47.011Z,7.07
2019-04-10T06:18:47.169Z,7.07
2019-04-10T06:19:46.953Z,7.04
2019-04-10T06:20:47.344Z,7.05
2019-04-10T06:21:48.086Z,7.09
2019-04-10T06:22:47.334Z,7.14
2019-04-10T06:23:47.666Z,7.19
2019-04-10T06:24:47.094Z,7.24
2019-04-10T06:25:47.822Z,7.19
2019-04-10T06:26:47.910Z,7.27
2019-04-10T06:27:48.337Z,7.21
2019-04-10T06:28:47.460Z,7.24
2019-04-10T06:29:47.653Z,7.30
2019-04-10T06:30:48.068Z,7.32
2019-04-10T06:31:47.294Z,7.32
2019-04-10T06:32:47.390Z,7.30
2019-04-10T06:33:48.385Z,7.34
2019-04-10T06:34:48.149Z,7.44
2019-04-10T06:35:47.405Z,7.42
2019-04-10T06:36:47.435Z,7.55
2019-04-10T06:37:48.398Z,7.57
2019-04-10T06:38:47.492Z,7.60
2019-04-10T06:39:47.520Z,7.71
2019-04-10T06:40:48.230Z,7.76
2019-04-10T06:41:48.668Z,7.77
2019-04-10T06:42:53.102Z,7.82
2019-04-10T06:43:47.637Z,7.85
2019-04-10T06:44:47.665Z,7.82
2019-04-10T06:45:48.258Z,7.89
2019-04-10T06:46:48.594Z,7.91
2019-04-10T06:47:48.692Z,7.92
2019-04-10T06:48:47.984Z,7.88
2019-04-10T06:49:47.925Z,7.92
2019-04-10T06:50:47.838Z,7.92
2019-04-10T06:51:47.866Z,7.91
2019-04-10T06:52:47.898Z,8.00
2019-04-10T06:53:59.442Z,8.03
2019-04-10T06:54:48.990Z,8.04
2019-04-10T06:55:48.886Z,8.06
2019-04-10T06:56:48.767Z,8.04
2019-04-10T06:57:53.831Z,8.03
2019-04-10T06:58:48.068Z,8.00
2019-04-10T06:59:48.297Z,8.00
2019-04-10T07:00:52.939Z,8.00
2019-04-10T07:01:52.846Z,8.04
2019-04-10T07:02:48.429Z,7.99
2019-04-10T07:03:58.518Z,8.06
2019-04-10T07:04:53.337Z,8.09
2019-04-10T07:06:02.409Z,8.07
2019-04-10T07:06:58.054Z,8.03
2019-04-10T07:07:53.622Z,8.09
2019-04-10T07:08:50.907Z,8.21
2019-04-10T07:09:49.511Z,8.24
2019-04-10T07:10:55.379Z,8.18
2019-04-10T07:11:53.477Z,8.14
2019-04-10T07:12:48.476Z,8.32
2019-04-10T07:13:49.083Z,8.31
2019-04-10T07:14:50.777Z,8.37
2019-04-10T07:15:49.656Z,8.45
2019-04-10T07:16:48.625Z,8.47
2019-04-10T07:17:49.240Z,8.45
2019-04-10T07:18:49.437Z,8.61
2019-04-10T07:19:49.312Z,8.64
2019-04-10T07:20:48.973Z,8.67
2019-04-10T07:21:49.145Z,8.65
2019-04-10T07:22:49.719Z,8.79
2019-04-10T07:23:49.062Z,8.78
2019-04-10T07:24:51.393Z,8.85
2019-04-10T07:25:49.861Z,8.86
2019-04-10T07:26:49.750Z,8.89
2019-04-10T07:27:48.931Z,8.94
2019-04-10T07:28:50.314Z,8.96
2019-04-10T07:29:51.509Z,8.97
2019-04-10T07:30:49.005Z,8.98
2019-04-10T07:31:49.033Z,8.96
2019-04-10T07:32:49.308Z,9.06
2019-04-10T07:33:50.771Z,9.12
2019-04-10T07:34:49.120Z,9.13
2019-04-10T07:35:50.030Z,9.17
2019-04-10T07:36:49.765Z,9.16
2019-04-10T07:37:55.934Z,9.16
2019-04-10T07:38:49.238Z,9.15
2019-04-10T07:39:49.270Z,9.15
2019-04-10T07:40:49.300Z,9.19
2019-04-10T07:41:49.368Z,9.27
2019-04-10T07:42:50.339Z,9.32
2019-04-10T07:43:53.910Z,9.35
2019-04-10T07:44:49.419Z,9.38
2019-04-10T07:45:49.449Z,9.44
2019-04-10T07:46:49.481Z,9.50
2019-04-10T07:47:49.507Z,9.58
2019-04-10T07:48:50.267Z,9.68
2019-04-10T07:49:50.351Z,9.71
2019-04-10T07:50:49.597Z,9.78
2019-04-10T07:51:49.628Z,9.83
2019-04-10T07:52:49.984Z,9.80
2019-04-10T07:53:49.688Z,9.89
2019-04-10T07:54:50.375Z,9.92
2019-04-10T07:56:00.355Z,9.91
2019-04-10T07:56:49.778Z,9.96
2019-04-10T07:57:50.672Z,10.06
2019-04-10T07:58:49.838Z,10.04
2019-04-10T07:59:49.868Z,10.06
2019-04-10T08:00:51.312Z,10.11
2019-04-10T08:01:49.933Z,10.20
2019-04-10T08:02:51.070Z,10.22
2019-04-10T08:03:52.385Z,10.26
2019-04-10T08:04:50.019Z,10.25
2019-04-10T08:05:50.345Z,10.32
2019-04-10T08:06:50.245Z,10.28
2019-04-10T08:07:52.754Z,10.34
2019-04-10T08:08:51.074Z,10.36
2019-04-10T08:09:50.177Z,10.32
2019-04-10T08:10:50.947Z,10.38
2019-04-10T08:11:50.981Z,10.47
2019-04-10T08:12:53.619Z,10.38
2019-04-10T08:13:51.174Z,10.44
2019-04-10T08:14:50.330Z,10.44
2019-04-10T08:15:50.352Z,10.46
2019-04-10T08:16:50.384Z,10.55
2019-04-10T08:17:51.305Z,10.55
2019-04-10T08:18:50.448Z,10.52
2019-04-10T08:19:50.931Z,10.57
2019-04-10T08:20:50.902Z,10.51
2019-04-10T08:21:50.543Z,10.58
2019-04-10T08:22:51.194Z,10.66
2019-04-10T08:23:51.554Z,10.69
2019-04-10T08:24:51.224Z,10.75
2019-04-10T08:25:51.618Z,10.70
2019-04-10T08:26:50.694Z,10.76
2019-04-10T08:27:50.717Z,10.84
2019-04-10T08:28:51.693Z,10.94
2019-04-10T08:29:50.793Z,10.99
2019-04-10T08:30:50.811Z,11.06
2019-04-10T08:31:50.841Z,11.11
2019-04-10T08:32:57.067Z,11.20
2019-04-10T08:33:50.902Z,11.23
2019-04-10T08:34:51.292Z,11.16
2019-04-10T08:35:50.965Z,11.26
2019-04-10T08:36:52.681Z,11.30
2019-04-10T08:37:51.040Z,11.33
2019-04-10T08:38:51.085Z,11.41
2019-04-10T08:39:52.529Z,11.35
2019-04-10T08:40:52.279Z,11.42
2019-04-10T08:41:52.142Z,11.54
2019-04-10T08:42:51.345Z,11.51
2019-04-10T08:43:52.205Z,11.56
2019-04-10T08:44:52.133Z,11.53
2019-04-10T08:45:52.568Z,11.59
2019-04-10T08:46:51.302Z,11.59
2019-04-10T08:47:51.335Z,11.51
2019-04-10T08:48:51.890Z,11.67
2019-04-10T08:49:51.397Z,11.74
2019-04-10T08:50:52.400Z,11.69
2019-04-10T08:51:52.128Z,11.74
2019-04-10T08:52:51.529Z,11.93
2019-04-10T08:53:54.103Z,11.96
2019-04-10T08:54:51.552Z,11.97
2019-04-10T08:55:52.505Z,12.07
2019-04-10T08:56:52.553Z,12.05
2019-04-10T08:57:52.434Z,12.15
2019-04-10T08:58:51.787Z,12.21
2019-04-10T08:59:52.082Z,12.16
2019-04-10T09:00:53.024Z,12.34
2019-04-10T09:01:51.775Z,12.52
2019-04-10T09:02:52.677Z,12.63
2019-04-10T09:03:51.995Z,12.79
2019-04-10T09:04:51.865Z,12.89
2019-04-10T09:05:52.928Z,12.95
2019-04-10T09:06:51.949Z,13.25
2019-04-10T09:07:52.723Z,13.41
2019-04-10T09:08:53.080Z,13.55
2019-04-10T09:09:52.177Z,13.63
2019-04-10T09:10:52.526Z,13.84
2019-04-10T09:11:52.087Z,13.96
2019-04-10T09:12:54.417Z,14.01
2019-04-10T09:13:52.755Z,14.04
2019-04-10T09:14:52.199Z,14.06
2019-04-10T09:15:52.215Z,14.16
2019-04-10T09:16:53.126Z,14.17
2019-04-10T09:17:52.538Z,14.23
2019-04-10T09:18:52.312Z,14.26
2019-04-10T09:19:52.345Z,14.30
2019-04-10T09:20:53.107Z,14.34
2019-04-10T09:21:52.409Z,14.44
2019-04-10T09:23:13.480Z,14.44
2019-04-10T09:23:55.728Z,14.57
2019-04-10T09:24:52.874Z,14.63
2019-04-10T09:25:52.538Z,14.69
2019-04-10T09:26:52.838Z,14.64
2019-04-10T09:27:53.802Z,14.74
2019-04-10T09:28:52.924Z,14.82
2019-04-10T09:29:52.670Z,14.79
2019-04-10T09:30:53.196Z,14.85
2019-04-10T09:31:53.755Z,14.79
2019-04-10T09:32:52.838Z,14.86
2019-04-10T09:33:53.761Z,14.93
2019-04-10T09:34:53.012Z,14.94
2019-04-10T09:35:53.018Z,15.00
2019-04-10T09:36:53.450Z,15.04
2019-04-10T09:37:52.932Z,15.20
2019-04-10T09:38:52.964Z,15.09
2019-04-10T09:39:54.648Z,15.19
2019-04-10T09:40:53.329Z,15.23
2019-04-10T09:41:53.064Z,15.22
2019-04-10T09:42:53.096Z,15.49
2019-04-10T09:43:53.960Z,15.46
2019-04-10T09:44:53.165Z,15.60
2019-04-10T09:45:53.617Z,15.62
2019-04-10T09:46:53.691Z,15.74
2019-04-10T09:47:53.277Z,15.80
2019-04-10T09:48:53.299Z,15.89
2019-04-10T09:49:53.651Z,15.91
2019-04-10T09:50:53.364Z,15.93
2019-04-10T09:51:54.297Z,15.93
2019-04-10T09:52:54.494Z,15.99
2019-04-10T09:53:53.473Z,16.03
2019-04-10T09:54:53.499Z,15.96
2019-04-10T09:55:54.486Z,16.03
2019-04-10T09:56:53.569Z,15.89
2019-04-10T09:57:53.979Z,15.91
2019-04-10T09:58:53.632Z,15.99
2019-04-10T09:59:54.580Z,15.93
2019-04-10T10:00:54.443Z,15.96
2019-04-10T10:01:54.900Z,15.95
2019-04-10T10:02:53.769Z,16.07
2019-04-10T10:03:54.788Z,16.17
2019-04-10T10:04:53.837Z,16.23
2019-04-10T10:05:54.986Z,16.41
2019-04-10T10:06:54.064Z,16.48
2019-04-10T10:07:56.099Z,16.52
2019-04-10T10:08:54.317Z,16.63
2019-04-10T10:09:55.756Z,16.69
2019-04-10T10:10:54.072Z,16.73
2019-04-10T10:11:54.076Z,16.87
2019-04-10T10:12:54.109Z,17.00
2019-04-10T10:13:54.314Z,17.17
2019-04-10T10:14:54.177Z,17.15
2019-04-10T10:15:54.573Z,17.27
2019-04-10T10:16:54.246Z,17.30
2019-04-10T10:17:55.066Z,17.38
2019-04-10T10:18:54.315Z,17.32
2019-04-10T10:19:55.349Z,17.45
2019-04-10T10:20:54.384Z,17.33
2019-04-10T10:21:54.418Z,17.39
2019-04-10T10:22:54.452Z,17.40
2019-04-10T10:23:54.488Z,17.38
2019-04-10T10:24:55.082Z,17.42
2019-04-10T10:25:55.404Z,17.36
2019-04-10T10:26:55.553Z,17.46
2019-04-10T10:27:54.626Z,17.54
2019-04-10T10:28:54.677Z,17.66
2019-04-10T10:29:55.962Z,17.76
2019-04-10T10:30:55.721Z,17.84
2019-04-10T10:32:02.575Z,17.83
2019-04-10T10:33:58.817Z,17.83
2019-04-10T10:34:58.952Z,17.87
2019-04-10T10:37:03.903Z,17.94
2019-04-10T10:38:03.929Z,17.95
2019-04-10T10:40:08.296Z,17.95
2019-04-10T10:41:06.964Z,17.99
2019-04-10T10:43:00.297Z,18.04
2019-04-10T10:44:00.591Z,18.04
2019-04-10T10:46:04.088Z,18.04
2019-04-10T10:47:04.186Z,18.19
2019-04-10T10:49:08.419Z,18.28
2019-04-10T10:50:08.725Z,18.41
2019-04-10T10:52:12.207Z,18.56
2019-04-10T10:53:12.327Z,18.62
2019-04-10T10:55:16.190Z,18.83
2019-04-10T10:56:16.220Z,18.87
2019-04-10T10:58:20.273Z,18.89
2019-04-10T10:59:20.291Z,18.89
2019-04-10T11:01:24.323Z,18.84
2019-04-10T11:02:25.466Z,18.78
2019-04-10T11:04:29.508Z,18.94
2019-04-10T11:05:30.823Z,18.96
2019-04-10T11:07:33.003Z,19.07
2019-04-10T11:08:32.490Z,19.09
2019-04-10T11:10:36.549Z,19.24
2019-04-10T11:11:36.961Z,19.28
2019-04-10T11:13:30.751Z,19.39
2019-04-10T11:14:29.999Z,19.43
2019-04-10T11:16:23.222Z,19.55
2019-04-10T11:17:22.548Z,19.57
2019-04-10T11:19:27.117Z,19.71
2019-04-10T11:20:27.961Z,19.80
2019-04-10T11:22:31.552Z,19.90
2019-04-10T11:23:30.678Z,20.02
2019-04-10T11:25:35.881Z,19.98
2019-04-10T11:26:36.184Z,20.04
2019-04-10T11:28:39.288Z,19.92
2019-04-10T11:29:39.058Z,19.89
2019-04-10T11:31:42.854Z,19.64
2019-04-10T11:32:44.347Z,19.52
2019-04-10T11:34:46.939Z,19.21
2019-04-10T11:35:47.570Z,19.02
2019-04-10T11:37:53.319Z,18.76
2019-04-10T11:38:51.966Z,18.74
2019-04-10T11:40:57.740Z,18.57
2019-04-10T11:41:55.315Z,18.64
2019-04-10T11:44:00.293Z,18.49
2019-04-10T11:44:59.381Z,18.44
2019-04-10T11:47:05.572Z,18.44
2019-04-10T11:48:03.516Z,18.59
2019-04-10T11:50:13.097Z,18.56
2019-04-10T11:51:09.356Z,18.60
2019-04-10T11:53:13.665Z,18.46
2019-04-10T11:54:14.597Z,18.49
2019-04-10T11:56:05.606Z,18.28
2019-04-10T11:57:06.764Z,18.26
2019-04-10T11:59:11.576Z,18.28
2019-04-10T12:00:14.919Z,18.31
2019-04-10T12:02:14.269Z,18.28
2019-04-10T12:03:12.931Z,18.34
2019-04-10T12:05:19.889Z,18.31
2019-04-10T12:06:19.107Z,18.46
2019-04-10T12:08:44.766Z,18.56
2019-04-10T12:10:18.531Z,18.50
2019-04-10T12:11:24.774Z,18.56
2019-04-10T12:12:25.592Z,18.46
2019-04-10T12:14:29.894Z,18.53
2019-04-10T12:15:28.746Z,18.46
2019-04-10T12:17:33.824Z,18.32
2019-04-10T12:18:32.898Z,18.29
2019-04-10T12:20:37.491Z,18.19
2019-04-10T12:21:37.918Z,18.19
2019-04-10T12:23:40.988Z,18.17
2019-04-10T12:24:40.940Z,18.04
2019-04-10T12:26:33.974Z,18.10
2019-04-10T12:27:33.922Z,18.05
2019-04-10T12:29:38.477Z,17.95
2019-04-10T12:30:38.002Z,18.02
2019-04-10T12:32:43.072Z,18.01
2019-04-10T12:33:42.427Z,17.96
2019-04-10T12:35:46.131Z,18.05
2019-04-10T12:36:46.849Z,18.07
2019-04-10T12:38:50.171Z,18.32
2019-04-10T12:39:50.205Z,18.44
2019-04-10T12:41:55.269Z,18.66
2019-04-10T12:42:54.624Z,18.76
2019-04-10T12:44:58.303Z,18.83
2019-04-10T12:45:58.336Z,18.86
2019-04-10T12:48:02.393Z,19.09
2019-04-10T12:49:09.580Z,19.09
2019-04-10T12:51:05.532Z,19.16
2019-04-10T12:52:04.473Z,19.15
2019-04-10T12:54:06.598Z,19.09
2019-04-10T12:55:06.604Z,18.87
2019-04-10T12:57:08.793Z,18.75
2019-04-10T12:58:13.599Z,18.59
2019-04-10T13:00:04.113Z,18.46
2019-04-10T13:01:00.837Z,18.38
2019-04-10T13:03:03.042Z,18.19
2019-04-10T13:04:03.422Z,18.05
2019-04-10T13:06:05.279Z,17.94
2019-04-10T13:07:12.216Z,17.95
2019-04-10T13:09:12.419Z,17.81
2019-04-10T13:10:09.123Z,17.86
2019-04-10T13:12:13.221Z,17.76
2019-04-10T13:13:13.631Z,17.79
2019-04-10T13:15:17.320Z,17.74
2019-04-10T13:16:18.214Z,17.76
2019-04-10T13:18:10.207Z,17.57
2019-04-10T13:19:11.195Z,17.49
2019-04-10T13:21:14.708Z,17.33
2019-04-10T13:22:14.288Z,17.15
2019-04-10T13:24:19.418Z,17.17
2019-04-10T13:25:18.528Z,17.09
2019-04-10T13:27:23.091Z,16.88
2019-04-10T13:28:23.383Z,16.90
2019-04-10T13:30:27.048Z,16.73
2019-04-10T13:31:27.645Z,16.73
2019-04-10T13:33:30.996Z,16.73
2019-04-10T13:34:30.545Z,16.81
2019-04-10T13:36:35.593Z,16.78
2019-04-10T13:37:35.608Z,16.80
2019-04-10T13:39:39.222Z,17.06
2019-04-10T13:40:39.502Z,17.20
2019-04-10T13:42:42.701Z,17.39
2019-04-10T13:43:42.735Z,17.47
2019-04-10T13:45:46.784Z,17.70
2019-04-10T13:46:46.969Z,17.77
2019-04-10T13:48:50.830Z,17.80
2019-04-10T13:49:51.209Z,17.81
2019-04-10T13:50:50.892Z,17.71
2019-04-10T13:51:51.832Z,17.79
2019-04-10T13:52:52.566Z,17.66
2019-04-10T13:53:50.992Z,17.83
2019-04-10T13:54:51.028Z,17.81
2019-04-10T13:55:51.063Z,17.92
2019-04-10T13:56:51.098Z,17.99
2019-04-10T13:57:51.134Z,18.09
2019-04-10T13:58:51.170Z,18.20
2019-04-10T13:59:51.225Z,18.38
2019-04-10T14:00:52.516Z,18.44
2019-04-10T14:01:52.189Z,18.46
2019-04-10T14:02:52.112Z,18.46
2019-04-10T14:03:52.371Z,18.54
2019-04-10T14:04:51.430Z,18.66
2019-04-10T14:05:51.411Z,18.69
2019-04-10T14:06:51.486Z,18.76
2019-04-10T14:07:51.484Z,18.74
2019-04-10T14:09:07.865Z,18.65
2019-04-10T14:09:52.509Z,18.57
2019-04-10T14:10:52.846Z,18.53
2019-04-10T14:11:51.625Z,18.47
2019-04-10T14:12:51.661Z,18.42
2019-04-10T14:13:51.889Z,18.31
2019-04-10T14:14:51.732Z,18.26
2019-04-10T14:15:52.498Z,18.21
2019-04-10T14:16:51.801Z,18.04
2019-04-10T14:17:52.135Z,17.94
2019-04-10T14:18:52.868Z,17.87
2019-04-10T14:19:52.027Z,17.81
2019-04-10T14:20:51.941Z,17.60
2019-04-10T14:21:51.975Z,17.58
2019-04-10T14:22:52.012Z,17.53
2019-04-10T14:23:52.047Z,17.36
2019-04-10T14:24:52.225Z,17.32
2019-04-10T14:25:52.117Z,17.15
2019-04-10T14:26:53.834Z,17.07
2019-04-10T14:27:52.343Z,16.98
2019-04-10T14:28:53.439Z,16.80
2019-04-10T14:29:52.257Z,16.80
2019-04-10T14:30:52.293Z,16.69
2019-04-10T14:31:53.199Z,16.70
2019-04-10T14:32:52.439Z,16.57
2019-04-10T14:33:53.228Z,16.42
2019-04-10T14:34:52.653Z,16.45
2019-04-10T14:35:53.581Z,16.33
2019-04-10T14:36:52.708Z,16.32
2019-04-10T14:37:52.535Z,16.30
2019-04-10T14:38:52.571Z,16.32
2019-04-10T14:39:52.623Z,16.37
2019-04-10T14:40:53.536Z,16.34
2019-04-10T14:41:53.839Z,16.42
2019-04-10T14:42:53.574Z,16.32
2019-04-10T14:43:53.676Z,16.42
2019-04-10T14:44:53.057Z,16.36
2019-04-10T14:45:52.815Z,16.40